createdAt,value
2023-04-25T00:02:04.273Z,99707.45
2023-04-25T00:04:35.824Z,99712.22
2023-04-25T00:07:07.886Z,99717.78
2023-04-25T00:09:37.181Z,99719.30
2023-04-25T00:12:09.550Z,99720.61
2023-04-25T00:14:39.870Z,99719.45
2023-04-25T00:17:10.195Z,99719.09
2023-04-25T00:19:40.983Z,99722.02
2023-04-25T00:22:11.250Z,99714.48
2023-04-25T00:24:42.189Z,99724.01
2023-04-25T00:27:12.722Z,99719.03
2023-04-25T00:29:43.044Z,99716.47
2023-04-25T00:32:13.568Z,99710.44
2023-04-25T00:34:44.299Z,99712.77
2023-04-25T00:37:15.031Z,99709.53
2023-04-25T00:39:45.969Z,99706.50
2023-04-25T00:42:16.700Z,99706.96
2023-04-25T00:44:47.549Z,99716.59
2023-04-25T00:47:18.165Z,99714.97
2023-04-25T00:49:48.896Z,99717.06
2023-04-25T00:52:20.448Z,99731.70
2023-04-25T00:54:51.380Z,99729.83
2023-04-25T00:57:21.711Z,99735.17
2023-04-25T00:59:54.288Z,99738.66
2023-04-25T01:02:26.279Z,99731.70
2023-04-25T01:04:55.140Z,99729.25
2023-04-25T01:07:25.872Z,99735.48
2023-04-25T01:09:57.015Z,99729.45
2023-04-25T01:12:28.150Z,99737.91
2023-04-25T01:14:58.689Z,99729.11
2023-04-25T01:17:30.144Z,99719.69
2023-04-25T01:20:03.231Z,99718.28
2023-04-25T01:22:33.537Z,99717.48
2023-04-25T01:25:05.097Z,99710.73
2023-04-25T01:27:36.980Z,99708.78
2023-04-25T01:30:11.054Z,99709.70
2023-04-25T01:32:43.272Z,99706.08
2023-04-25T01:35:14.788Z,99702.49
2023-04-25T01:37:46.538Z,99705.62
2023-04-25T01:40:16.450Z,99702.13
2023-04-25T01:42:47.183Z,99695.75
2023-04-25T01:45:19.967Z,99702.37
2023-04-25T01:47:51.169Z,99706.08
2023-04-25T01:50:22.045Z,99706.53
2023-04-25T01:52:55.240Z,99710.00
2023-04-25T01:55:26.169Z,99717.41
2023-04-25T01:58:17.997Z,99710.70
2023-04-25T02:01:07.409Z,99706.41
2023-04-25T02:03:43.140Z,99708.12
2023-04-25T02:06:22.140Z,99690.15
2023-04-25T02:08:54.308Z,99690.23
2023-04-25T02:11:24.433Z,99689.65
2023-04-25T02:14:12.387Z,99688.72
2023-04-25T02:17:01.994Z,99685.47
2023-04-25T02:19:34.071Z,99680.80
2023-04-25T02:22:04.231Z,99685.80
2023-04-25T02:24:35.980Z,99684.38
2023-04-25T02:27:08.352Z,99691.78
2023-04-25T02:29:39.287Z,99686.91
2023-04-25T02:32:09.819Z,99680.19
2023-04-25T02:34:40.556Z,99674.73
2023-04-25T02:37:11.691Z,99670.06
2023-04-25T02:39:42.014Z,99667.05
2023-04-25T02:42:12.954Z,99663.80
2023-04-25T02:44:43.086Z,99663.66
2023-04-25T02:47:13.844Z,99662.24
2023-04-25T02:49:45.761Z,99666.39
2023-04-25T02:52:16.081Z,99658.85
2023-04-25T02:54:47.220Z,99655.59
2023-04-25T02:57:17.366Z,99647.44
2023-04-25T02:59:47.472Z,99653.21
2023-04-25T03:02:18.015Z,99654.49
2023-04-25T03:04:48.765Z,99654.11
2023-04-25T03:07:19.667Z,99649.82
2023-04-25T03:09:52.642Z,99651.09
2023-04-25T03:12:23.584Z,99644.35
2023-04-25T03:14:54.111Z,99646.42
2023-04-25T03:17:24.891Z,99644.80
2023-04-25T03:19:55.778Z,99645.25
2023-04-25T03:22:26.304Z,99635.05
2023-04-25T03:24:57.036Z,99635.14
2023-04-25T03:27:27.770Z,99638.45
2023-04-25T03:29:57.915Z,99639.12
2023-04-25T03:32:28.443Z,99636.91
2023-04-25T03:34:58.334Z,99637.12
2023-04-25T03:37:30.090Z,99635.73
2023-04-25T03:40:00.620Z,99631.73
2023-04-25T03:42:37.899Z,99627.30
2023-04-25T03:45:11.606Z,99626.11
2023-04-25T03:47:42.083Z,99622.27
2023-04-25T03:50:13.796Z,99616.55
2023-04-25T03:52:44.520Z,99619.06
2023-04-25T03:55:15.041Z,99627.48
2023-04-25T03:57:45.791Z,99636.28
2023-04-25T04:00:17.952Z,99638.71
2023-04-25T04:02:49.155Z,99638.71
2023-04-25T04:05:20.988Z,99638.71
2023-04-25T04:07:57.549Z,99639.74
2023-04-25T04:10:28.243Z,99639.98
2023-04-25T04:12:59.805Z,99640.41
2023-04-25T04:15:33.343Z,99648.39
2023-04-25T04:18:03.963Z,99650.02
2023-04-25T04:20:35.280Z,99650.81
2023-04-25T04:23:06.649Z,99648.98
2023-04-25T04:25:37.154Z,99650.62
2023-04-25T04:28:25.819Z,99653.27
2023-04-25T04:31:03.396Z,99663.91
2023-04-25T04:33:34.535Z,99659.39
2023-04-25T04:36:10.177Z,99661.02
2023-04-25T04:38:42.892Z,99663.68
2023-04-25T04:41:20.860Z,99663.68
2023-04-25T04:44:15.286Z,99677.81
2023-04-25T04:47:14.754Z,99661.84
2023-04-25T04:50:15.592Z,99667.17
2023-04-25T04:53:06.943Z,99669.23
2023-04-25T04:56:10.108Z,99674.75
2023-04-25T04:59:01.148Z,99667.61
2023-04-25T05:01:39.019Z,99676.38
2023-04-25T05:04:28.429Z,99681.94
2023-04-25T05:07:27.785Z,99678.45
2023-04-25T05:10:28.418Z,99671.06
2023-04-25T05:13:22.289Z,99679.64
2023-04-25T05:16:16.385Z,99684.75
2023-04-25T05:18:55.908Z,99673.88
2023-04-25T05:21:47.114Z,99675.75
2023-04-25T05:24:29.320Z,99681.66
2023-04-25T05:27:26.477Z,99672.65
2023-04-25T05:30:10.097Z,99675.30
2023-04-25T05:32:53.801Z,99670.58
2023-04-25T05:35:24.722Z,99682.84
2023-04-25T05:37:55.618Z,99685.51
2023-04-25T05:40:37.205Z,99683.88
2023-04-25T05:43:36.410Z,99684.32
2023-04-25T05:46:24.205Z,99684.32
2023-04-25T05:49:22.315Z,99675.30
2023-04-25T05:52:11.275Z,99675.91
2023-04-25T05:55:01.896Z,99670.58
2023-04-25T05:57:34.239Z,99674.04
2023-04-25T06:00:09.611Z,99672.41
2023-04-25T06:02:46.254Z,99668.95
2023-04-25T06:05:18.649Z,99667.09
2023-04-25T06:07:48.841Z,99664.67
2023-04-25T06:10:20.188Z,99671.02
2023-04-25T06:12:50.925Z,99669.39
2023-04-25T06:15:28.010Z,99666.94
2023-04-25T06:17:59.597Z,99665.70
2023-04-25T06:20:31.315Z,99671.61
2023-04-25T06:23:02.877Z,99671.38
2023-04-25T06:25:52.432Z,99668.28
2023-04-25T06:28:23.981Z,99665.63
2023-04-25T06:30:54.584Z,99662.16
2023-04-25T06:33:25.651Z,99664.59
2023-04-25T06:35:56.199Z,99667.05
2023-04-25T06:38:29.371Z,99660.69
2023-04-25T06:41:00.718Z,99661.05
2023-04-25T06:43:34.139Z,99663.51
2023-04-25T06:46:23.774Z,99663.27
2023-04-25T06:48:54.231Z,99658.19
2023-04-25T06:51:25.156Z,99664.31
2023-04-25T06:53:56.497Z,99670.02
2023-04-25T06:56:34.189Z,99659.97
2023-04-25T06:59:08.621Z,99658.70
2023-04-25T07:01:42.011Z,99665.64
2023-04-25T07:04:20.100Z,99669.73
2023-04-25T07:06:56.384Z,99670.53
2023-04-25T07:09:34.495Z,99666.23
2023-04-25T07:12:07.472Z,99661.16
2023-04-25T07:14:37.324Z,99666.48
2023-04-25T07:17:07.705Z,99657.45
2023-04-25T07:19:40.487Z,99667.07
2023-04-25T07:22:10.620Z,99661.51
2023-04-25T07:24:42.784Z,99668.02
2023-04-25T07:27:14.734Z,99662.25
2023-04-25T07:29:56.113Z,99666.34
2023-04-25T07:32:27.768Z,99674.67
2023-04-25T07:34:58.196Z,99666.25
2023-04-25T07:37:28.112Z,99663.97
2023-04-25T07:40:10.205Z,99665.16
2023-04-25T07:42:41.860Z,99656.93
2023-04-25T07:45:13.930Z,99655.69
2023-04-25T07:47:44.169Z,99650.95
2023-04-25T07:50:14.468Z,99651.30
2023-04-25T07:52:44.997Z,99645.33
2023-04-25T07:55:32.929Z,99637.92
2023-04-25T07:58:07.558Z,99642.35
2023-04-25T08:00:39.116Z,99645.19
2023-04-25T08:03:39.524Z,99632.67
2023-04-25T08:06:14.645Z,99640.20
2023-04-25T08:08:52.205Z,99642.42
2023-04-25T08:11:24.016Z,99644.42
2023-04-25T08:13:54.751Z,99632.86
2023-04-25T08:16:26.455Z,99640.99
2023-04-25T08:18:56.591Z,99645.41
2023-04-25T08:21:27.563Z,99642.88
2023-04-25T08:23:59.320Z,99645.68
2023-04-25T08:26:33.534Z,99638.61
2023-04-25T08:29:03.858Z,99642.23
2023-04-25T08:31:34.622Z,99654.86
2023-04-25T08:34:06.554Z,99650.94
2023-04-25T08:36:54.900Z,99658.70
2023-04-25T08:39:43.245Z,99658.24
2023-04-25T08:42:34.096Z,99661.03
2023-04-25T08:45:07.367Z,99659.53
2023-04-25T08:47:42.113Z,99665.23
2023-04-25T08:50:11.593Z,99665.58
2023-04-25T08:52:46.606Z,99664.32
2023-04-25T08:55:18.666Z,99666.74
2023-04-25T08:57:50.809Z,99670.58
2023-04-25T09:00:22.305Z,99659.69
2023-04-25T09:02:54.392Z,99660.28
2023-04-25T09:05:26.413Z,99665.61
2023-04-25T09:07:59.386Z,99660.03
2023-04-25T09:13:09.247Z,99668.61
2023-04-25T09:15:57.381Z,99668.16
2023-04-25T09:18:49.964Z,99665.85
2023-04-25T09:21:24.864Z,99654.94
2023-04-25T09:23:55.445Z,99653.67
2023-04-25T09:26:27.354Z,99656.67
2023-04-25T09:29:07.928Z,99662.38
2023-04-25T09:31:39.294Z,99665.74
2023-04-25T09:34:16.139Z,99655.19
2023-04-25T09:36:49.734Z,99660.17
2023-04-25T09:39:30.502Z,99658.22
2023-04-25T09:42:10.410Z,99655.44
2023-04-25T09:44:45.393Z,99659.59
2023-04-25T09:47:18.287Z,99657.39
2023-04-25T09:49:48.795Z,99651.91
2023-04-25T09:52:22.330Z,99645.39
2023-04-25T09:55:16.476Z,99642.10
2023-04-25T09:57:53.688Z,99641.16
2023-04-25T10:00:25.351Z,99639.50
2023-04-25T10:02:58.177Z,99634.34
2023-04-25T10:05:49.862Z,99636.16
2023-04-25T10:08:23.858Z,99632.04
2023-04-25T10:10:54.462Z,99627.66
2023-04-25T10:13:26.243Z,99619.81
2023-04-25T10:15:58.296Z,99614.66
2023-04-25T10:18:28.918Z,99607.62
2023-04-25T10:21:01.242Z,99603.70
2023-04-25T10:23:31.404Z,99603.13
2023-04-25T10:26:02.766Z,99607.88
2023-04-25T10:29:01.912Z,99607.29
2023-04-25T10:31:33.526Z,99606.42
2023-04-25T10:34:03.622Z,99605.23
2023-04-25T10:36:35.198Z,99593.02
2023-04-25T10:39:09.522Z,99593.95
2023-04-25T10:41:54.452Z,99595.71
2023-04-25T10:44:27.275Z,99587.83
2023-04-25T10:46:59.437Z,99582.05
2023-04-25T10:49:35.271Z,99583.25
2023-04-25T10:52:17.670Z,99578.28
2023-04-25T10:54:53.076Z,99571.45
2023-04-25T10:57:37.758Z,99565.08
2023-04-25T11:00:16.547Z,99566.27
2023-04-25T11:02:49.829Z,99564.44
2023-04-25T11:05:33.143Z,99558.08
2023-04-25T11:08:12.226Z,99558.16
2023-04-25T11:10:42.342Z,99550.97
2023-04-25T11:13:13.076Z,99554.23
2023-04-25T11:15:44.014Z,99550.00
2023-04-25T11:18:18.825Z,99541.13
2023-04-25T11:20:50.813Z,99530.91
2023-04-25T11:23:19.897Z,99532.80
2023-04-25T11:25:50.638Z,99531.17
2023-04-25T11:28:24.683Z,99527.67
2023-04-25T11:30:55.787Z,99521.45
2023-04-25T11:33:28.486Z,99516.05
2023-04-25T11:35:59.498Z,99507.97
2023-04-25T11:38:30.649Z,99503.94
2023-04-25T11:41:01.458Z,99500.42
2023-04-25T11:43:34.257Z,99498.81
2023-04-25T11:46:10.083Z,99500.42
2023-04-25T11:48:41.789Z,99507.71
2023-04-25T11:51:10.883Z,99510.66
2023-04-25T11:53:45.495Z,99512.58
2023-04-25T11:56:16.260Z,99526.59
2023-04-25T11:59:01.663Z,99533.31
2023-04-25T12:01:35.532Z,99536.84
2023-04-25T12:04:17.074Z,99523.91
2023-04-25T12:06:49.363Z,99533.60
2023-04-25T12:09:21.737Z,99537.37
2023-04-25T12:11:56.431Z,99533.05
2023-04-25T12:14:28.718Z,99539.95
2023-04-25T12:17:00.598Z,99527.83
2023-04-25T12:19:35.796Z,99524.80
2023-04-25T12:22:19.872Z,99526.61
2023-04-25T12:24:49.979Z,99521.90
2023-04-25T12:27:20.547Z,99513.00
2023-04-25T12:29:56.142Z,99500.86
2023-04-25T12:32:27.158Z,99498.39
2023-04-25T12:34:57.833Z,99498.36
2023-04-25T12:37:27.756Z,99502.08
2023-04-25T12:39:58.291Z,99501.49
2023-04-25T12:42:28.802Z,99489.66
2023-04-25T12:44:58.251Z,99492.27
2023-04-25T12:47:28.894Z,99488.95
2023-04-25T12:49:59.579Z,99492.66
2023-04-25T12:52:30.302Z,99494.79
2023-04-25T12:55:01.658Z,99498.22
2023-04-25T12:57:32.584Z,99492.02
2023-04-25T13:00:05.029Z,99496.51
2023-04-25T13:02:35.805Z,99500.73
2023-04-25T13:05:09.267Z,99496.94
2023-04-25T13:07:39.403Z,99492.64
2023-04-25T13:10:12.580Z,99483.23
2023-04-25T13:12:43.542Z,99464.48
2023-04-25T13:15:15.862Z,99461.00
2023-04-25T13:17:46.512Z,99460.73
2023-04-25T13:20:19.331Z,99464.79
2023-04-25T13:22:49.734Z,99456.48
2023-04-25T13:25:22.512Z,99446.42
2023-04-25T13:27:52.845Z,99443.00
2023-04-25T13:30:23.571Z,99440.95
2023-04-25T13:32:56.780Z,99438.89
2023-04-25T13:35:27.489Z,99438.99
2023-04-25T13:37:58.230Z,99440.97
2023-04-25T13:40:29.988Z,99447.48
2023-04-25T13:43:00.711Z,99440.57
2023-04-25T13:45:33.291Z,99442.53
2023-04-25T13:48:05.499Z,99439.63
2023-04-25T13:50:36.608Z,99442.89
2023-04-25T13:53:07.341Z,99439.95
2023-04-25T13:55:39.495Z,99442.94
2023-04-25T13:58:10.359Z,99442.97
2023-04-25T14:00:43.832Z,99441.08
2023-04-25T14:03:14.632Z,99444.08
2023-04-25T14:05:45.499Z,99434.38
2023-04-25T14:08:16.036Z,99435.70
2023-04-25T14:10:46.758Z,99421.44
2023-04-25T14:13:18.831Z,99410.37
2023-04-25T14:15:47.646Z,99405.52
2023-04-25T14:18:18.366Z,99403.06
2023-04-25T14:20:49.483Z,99396.88
2023-04-25T14:23:19.600Z,99392.77
2023-04-25T14:25:50.333Z,99388.94
2023-04-25T14:28:21.477Z,99392.14
2023-04-25T14:30:52.045Z,99395.59
2023-04-25T14:33:22.328Z,99396.58
2023-04-25T14:35:53.692Z,99394.34
2023-04-25T14:38:25.594Z,99386.97
2023-04-25T14:40:56.373Z,99385.53
2023-04-25T14:43:27.103Z,99388.14
2023-04-25T14:45:58.595Z,99393.70
2023-04-25T14:48:30.326Z,99385.86
2023-04-25T14:51:01.583Z,99382.81
2023-04-25T14:53:32.898Z,99385.70
2023-04-25T14:56:03.021Z,99376.69
2023-04-25T14:58:34.780Z,99373.20
2023-04-25T15:01:04.081Z,99371.08
2023-04-25T15:03:35.295Z,99368.70
2023-04-25T15:06:07.601Z,99361.19
2023-04-25T15:08:38.582Z,99356.94
2023-04-25T15:11:11.476Z,99348.10
2023-04-25T15:13:41.434Z,99353.27
2023-04-25T15:16:12.497Z,99342.83
2023-04-25T15:18:43.303Z,99344.75
2023-04-25T15:21:13.832Z,99347.23
2023-04-25T15:23:44.576Z,99344.89
2023-04-25T15:26:15.294Z,99345.23
2023-04-25T15:28:46.031Z,99346.11
2023-04-25T15:31:17.175Z,99347.27
2023-04-25T15:33:47.290Z,99340.64
2023-04-25T15:36:18.979Z,99345.56
2023-04-25T15:38:49.780Z,99345.63
2023-04-25T15:41:20.722Z,99347.55
2023-04-25T15:43:51.399Z,99351.12
2023-04-25T15:46:23.321Z,99350.11
2023-04-25T15:48:53.737Z,99360.36
2023-04-25T15:51:24.468Z,99366.08
2023-04-25T15:53:56.020Z,99360.45
2023-04-25T15:56:25.324Z,99352.67
2023-04-25T15:58:55.848Z,99352.69
2023-04-25T16:01:30.179Z,99355.63
2023-04-25T16:04:01.152Z,99353.47
2023-04-25T16:06:32.149Z,99356.98
2023-04-25T16:09:04.261Z,99355.07
2023-04-25T16:11:34.430Z,99362.86
2023-04-25T16:14:05.161Z,99358.26
2023-04-25T16:16:36.230Z,99360.89
2023-04-25T16:19:06.624Z,99360.61
2023-04-25T16:21:37.357Z,99359.76
2023-04-25T16:24:09.814Z,99355.17
2023-04-25T16:26:44.872Z,99354.06
2023-04-25T16:29:17.580Z,99356.97
2023-04-25T16:31:47.883Z,99356.41
2023-04-25T16:34:18.806Z,99364.16
2023-04-25T16:36:49.532Z,99362.48
2023-04-25T16:39:21.333Z,99367.52
2023-04-25T16:41:50.552Z,99358.34
2023-04-25T16:44:21.524Z,99361.23
2023-04-25T16:46:52.073Z,99361.92
2023-04-25T16:49:23.193Z,99366.69
2023-04-25T16:51:53.718Z,99361.53
2023-04-25T16:54:25.067Z,99370.03
2023-04-25T16:56:55.002Z,99368.14
2023-04-25T16:59:24.892Z,99376.92
2023-04-25T17:01:55.879Z,99368.61
2023-04-25T17:04:28.035Z,99374.70
2023-04-25T17:06:58.933Z,99378.95
2023-04-25T17:09:29.671Z,99382.09
2023-04-25T17:12:02.168Z,99380.92
2023-04-25T17:14:34.959Z,99389.41
2023-04-25T17:17:05.314Z,99391.97
2023-04-25T17:19:36.079Z,99390.80
2023-04-25T17:22:06.822Z,99396.59
2023-04-25T17:24:37.359Z,99395.97
2023-04-25T17:27:08.072Z,99395.61
2023-04-25T17:29:38.612Z,99400.30
2023-04-25T17:32:09.595Z,99397.80
2023-04-25T17:34:40.294Z,99388.91
2023-04-25T17:37:15.529Z,99394.42
2023-04-25T17:39:45.854Z,99399.96
2023-04-25T17:42:16.361Z,99402.30
2023-04-25T17:44:46.273Z,99405.16
2023-04-25T17:47:18.642Z,99412.05
2023-04-25T17:49:48.766Z,99414.87
2023-04-25T17:52:19.288Z,99422.59
2023-04-25T17:54:51.259Z,99416.11
2023-04-25T17:57:22.307Z,99427.52
2023-04-25T17:59:53.149Z,99432.21
2023-04-25T18:02:23.840Z,99434.80
2023-04-25T18:04:55.241Z,99435.77
2023-04-25T18:07:25.322Z,99436.98
2023-04-25T18:09:55.662Z,99445.97
2023-04-25T18:12:28.138Z,99445.05
2023-04-25T18:14:59.369Z,99448.68
2023-04-25T18:17:29.759Z,99451.52
2023-04-25T18:20:01.365Z,99449.80
2023-04-25T18:22:31.354Z,99458.48
2023-04-25T18:25:15.438Z,99457.33
2023-04-25T18:27:46.346Z,99452.72
2023-04-25T18:30:16.863Z,99452.37
2023-04-25T18:32:47.686Z,99445.89
2023-04-25T18:35:18.530Z,99445.31
2023-04-25T18:37:49.270Z,99448.69
2023-04-25T18:40:19.950Z,99443.02
2023-04-25T18:42:50.528Z,99441.62
2023-04-25T18:45:20.458Z,99445.02
2023-04-25T18:47:51.054Z,99442.82
2023-04-25T18:50:22.952Z,99437.39
2023-04-25T18:52:53.874Z,99437.86
2023-04-25T18:55:24.198Z,99440.17
2023-04-25T18:57:57.598Z,99441.69
2023-04-25T19:00:27.314Z,99437.07
2023-04-25T19:03:02.773Z,99440.43
2023-04-25T19:05:33.474Z,99448.10
2023-04-25T19:08:05.020Z,99439.17
2023-04-25T19:10:35.144Z,99444.17
2023-04-25T19:13:07.241Z,99440.35
2023-04-25T19:15:37.643Z,99441.03
2023-04-25T19:18:07.970Z,99439.88
2023-04-25T19:20:37.862Z,99441.97
2023-04-25T19:23:10.031Z,99440.59
2023-04-25T19:25:40.969Z,99432.02
2023-04-25T19:28:13.542Z,99442.31
2023-04-25T19:30:45.234Z,99436.87
2023-04-25T19:33:16.029Z,99434.09
2023-04-25T19:35:46.561Z,99435.38
2023-04-25T19:38:17.091Z,99443.84
2023-04-25T19:40:48.433Z,99445.34
2023-04-25T19:43:18.763Z,99439.89
2023-04-25T19:45:49.318Z,99442.19
2023-04-25T19:48:19.609Z,99447.40
2023-04-25T19:50:50.752Z,99446.02
2023-04-25T19:53:21.074Z,99442.38
2023-04-25T19:55:51.808Z,99437.97
2023-04-25T19:58:22.541Z,99441.91
2023-04-25T20:00:53.076Z,99451.61
2023-04-25T20:03:23.304Z,99450.45
2023-04-25T20:05:53.711Z,99449.28
2023-04-25T20:08:25.991Z,99450.77
2023-04-25T20:10:56.815Z,99448.81
2023-04-25T20:13:26.728Z,99446.81
2023-04-25T20:15:56.866Z,99444.84
2023-04-25T20:18:27.787Z,99449.80
2023-04-25T20:20:58.106Z,99447.83
2023-04-25T20:23:28.225Z,99443.99
2023-04-25T20:25:58.751Z,99444.66
2023-04-25T20:28:30.218Z,99439.44
2023-04-25T20:31:01.240Z,99435.81
2023-04-25T20:33:32.994Z,99440.78
2023-04-25T20:36:03.728Z,99436.71
2023-04-25T20:38:34.470Z,99434.73
2023-04-25T20:41:05.197Z,99434.16
2023-04-25T20:43:37.115Z,99436.43
2023-04-25T20:46:07.360Z,99429.94
2023-04-25T20:48:38.012Z,99433.48
2023-04-25T20:51:09.563Z,99433.14
2023-04-25T20:53:40.746Z,99429.06
2023-04-25T20:56:12.391Z,99421.53
2023-04-25T20:58:42.993Z,99422.80
2023-04-25T21:01:13.569Z,99416.31
2023-04-25T21:03:44.963Z,99412.23
2023-04-25T21:06:16.828Z,99419.03
2023-04-25T21:08:47.763Z,99418.88
2023-04-25T21:11:19.124Z,99413.80
2023-04-25T21:13:49.636Z,99414.25
2023-04-25T21:16:20.803Z,99411.20
2023-04-25T21:18:52.203Z,99412.47
2023-04-25T21:21:22.654Z,99421.48
2023-04-25T21:23:53.386Z,99421.69
2023-04-25T21:26:25.554Z,99422.72
2023-04-25T21:28:55.263Z,99414.95
2023-04-25T21:31:25.827Z,99415.19
2023-04-25T21:33:56.317Z,99423.95
2023-04-25T21:36:28.689Z,99421.30
2023-04-25T21:39:00.706Z,99423.95
2023-04-25T21:41:30.559Z,99415.19
2023-04-25T21:44:00.884Z,99423.16
2023-04-25T21:46:31.868Z,99422.56
2023-04-25T21:49:03.170Z,99411.34
2023-04-25T21:51:34.148Z,99425.66
2023-04-25T21:54:06.071Z,99416.27
2023-04-25T21:56:37.209Z,99418.93
2023-04-25T21:59:07.747Z,99420.20
2023-04-25T22:01:38.077Z,99417.75
2023-04-25T22:04:08.470Z,99411.04
2023-04-25T22:06:39.940Z,99417.39
2023-04-25T22:09:10.683Z,99415.14
2023-04-25T22:11:42.833Z,99418.23
2023-04-25T22:14:13.365Z,99411.50
2023-04-25T22:16:43.897Z,99410.11
2023-04-25T22:19:14.411Z,99414.00
2023-04-25T22:21:46.168Z,99406.27
2023-04-25T22:24:16.900Z,99409.56
2023-04-25T22:26:48.045Z,99405.28
2023-04-25T22:29:18.168Z,99405.72
2023-04-25T22:31:48.309Z,99405.13
2023-04-25T22:34:19.012Z,99412.49
2023-04-25T22:36:49.949Z,99413.96
2023-04-25T22:39:20.268Z,99418.08
2023-04-25T22:41:51.410Z,99409.16
2023-04-25T22:44:21.959Z,99405.91
2023-04-25T22:46:53.281Z,99398.37
2023-04-25T22:49:24.226Z,99398.58
2023-04-25T22:51:56.386Z,99393.94
2023-04-25T22:54:28.150Z,99396.79
2023-04-25T22:57:00.112Z,99403.36
2023-04-25T22:59:30.636Z,99403.98
2023-04-25T23:02:01.578Z,99397.48
2023-04-25T23:04:33.282Z,99407.50
2023-04-25T23:07:03.857Z,99398.34
2023-04-25T23:09:33.974Z,99398.58
2023-04-25T23:12:04.915Z,99396.12
2023-04-25T23:14:35.439Z,99395.76
2023-04-25T23:17:07.403Z,99392.50
2023-04-25T23:19:38.743Z,99388.86
2023-04-25T23:22:09.687Z,99393.99
2023-04-25T23:24:40.444Z,99388.31
2023-04-25T23:27:10.947Z,99385.27
2023-04-25T23:29:41.676Z,99384.89
2023-04-25T23:32:13.238Z,99392.67
2023-04-25T23:34:43.962Z,99384.31
2023-04-25T23:37:14.905Z,99377.02
2023-04-25T23:39:50.138Z,99385.39
2023-04-25T23:42:21.689Z,99381.31
2023-04-25T23:44:52.828Z,99378.06
2023-04-25T23:47:23.978Z,99379.31
2023-04-25T23:49:54.703Z,99372.58
2023-04-25T23:52:25.847Z,99378.31
2023-04-25T23:54:56.585Z,99377.70
2023-04-25T23:57:26.922Z,99371.01
2023-04-25T23:59:56.816Z,99367.53
